DHK52 EGNX-EBBR
Flight info
| Callsign | DHK52 |
|---|---|
| Flight time | 0h 50m |
| Altitude | 31000 |
| Route | DTY L10 DVR UL9 KONAN L607 KOK |
| Aircraft | B77L/H-SDE1E2E3FGHIJ2J3J4J5M1RWXY/LB1D1 |
Departure
| Time | 2026-05-07 06:58 |
|---|---|
| Airport | East Midlands Airport (EGNX) |
Arrival
| Time | 2026-05-07 07:48 |
|---|---|
| Airport | Brussels Airport (EBBR) |
| Time | Latitude | Longitude | Altitude | Speed | Heading |
|---|---|---|---|---|---|
| 2026-05-07 06:29 | 52.82724 | -1.35216 | 305 ft | 0 kts | 178° |
| 2026-05-07 06:48 | 52.82733 | -1.35216 | 306 ft | 4 kts | 178° |
| 2026-05-07 06:49 | 52.82759 | -1.35217 | 305 ft | 4 kts | 180° |
| 2026-05-07 06:49 | 52.82786 | -1.35216 | 305 ft | 4 kts | 185° |
| 2026-05-07 06:49 | 52.82807 | -1.35210 | 304 ft | 2 kts | 206° |
| 2026-05-07 06:49 | 52.82817 | -1.35199 | 305 ft | 2 kts | 244° |
| 2026-05-07 06:50 | 52.82820 | -1.35181 | 305 ft | 2 kts | 264° |
| 2026-05-07 06:50 | 52.82821 | -1.35164 | 304 ft | 2 kts | 268° |
| 2026-05-07 06:50 | 52.82821 | -1.35160 | 304 ft | 0 kts | 269° |
| 2026-05-07 06:51 | 52.82821 | -1.35163 | 304 ft | 0 kts | 269° |
| 2026-05-07 06:51 | 52.82821 | -1.35167 | 304 ft | 1 kts | 269° |
| 2026-05-07 06:51 | 52.82821 | -1.35175 | 304 ft | 1 kts | 269° |
| 2026-05-07 06:52 | 52.82820 | -1.35186 | 305 ft | 1 kts | 269° |
| 2026-05-07 06:52 | 52.82820 | -1.35199 | 306 ft | 1 kts | 269° |
| 2026-05-07 06:52 | 52.82820 | -1.35216 | 305 ft | 2 kts | 269° |
| 2026-05-07 06:52 | 52.82820 | -1.35234 | 307 ft | 2 kts | 270° |
| 2026-05-07 06:53 | 52.82820 | -1.35257 | 308 ft | 2 kts | 270° |
| 2026-05-07 06:53 | 52.82820 | -1.35281 | 308 ft | 2 kts | 270° |
| 2026-05-07 06:53 | 52.82820 | -1.35306 | 308 ft | 2 kts | 270° |
| 2026-05-07 06:53 | 52.82818 | -1.35331 | 308 ft | 2 kts | 252° |
| 2026-05-07 06:54 | 52.82803 | -1.35336 | 308 ft | 2 kts | 170° |
| 2026-05-07 06:54 | 52.82798 | -1.35312 | 309 ft | 2 kts | 90° |
| 2026-05-07 06:54 | 52.82806 | -1.35286 | 307 ft | 3 kts | 55° |
| 2026-05-07 06:54 | 52.82835 | -1.35271 | 306 ft | 6 kts | 6° |
| 2026-05-07 06:55 | 52.82874 | -1.35248 | 310 ft | 6 kts | 40° |
| 2026-05-07 06:55 | 52.82890 | -1.35185 | 308 ft | 6 kts | 82° |
| 2026-05-07 06:55 | 52.82894 | -1.35115 | 308 ft | 6 kts | 85° |
| 2026-05-07 06:55 | 52.82896 | -1.35044 | 308 ft | 6 kts | 88° |
| 2026-05-07 06:56 | 52.82898 | -1.34972 | 309 ft | 6 kts | 80° |
| 2026-05-07 06:56 | 52.82933 | -1.34937 | 313 ft | 6 kts | 7° |
| 2026-05-07 06:56 | 52.82978 | -1.34936 | 311 ft | 7 kts | 0° |
| 2026-05-07 06:56 | 52.83027 | -1.34936 | 309 ft | 7 kts | 0° |
| 2026-05-07 06:57 | 52.83060 | -1.34884 | 311 ft | 8 kts | 83° |
| 2026-05-07 06:57 | 52.83066 | -1.34758 | 307 ft | 23 kts | 88° |
| 2026-05-07 06:57 | 52.83076 | -1.34061 | 311 ft | 97 kts | 88° |
| 2026-05-07 06:57 | 52.83102 | -1.32585 | 305 ft | 158 kts | 88° |
| 2026-05-07 06:58 | 52.83143 | -1.30592 | 581 ft | 176 kts | 89° |
| 2026-05-07 06:58 | 52.83093 | -1.28580 | 1257 ft | 176 kts | 96° |
| 2026-05-07 06:58 | 52.82963 | -1.26564 | 1935 ft | 177 kts | 98° |
| 2026-05-07 06:58 | 52.82757 | -1.24470 | 2291 ft | 195 kts | 109° |
| 2026-05-07 06:59 | 52.82381 | -1.23063 | 2445 ft | 210 kts | 122° |
| 2026-05-07 06:59 | 52.81055 | -1.20396 | 2919 ft | 237 kts | 134° |
| 2026-05-07 06:59 | 52.80283 | -1.19057 | 3301 ft | 246 kts | 134° |
| 2026-05-07 06:59 | 52.79070 | -1.16987 | 3971 ft | 255 kts | 134° |
| 2026-05-07 07:00 | 52.77734 | -1.15036 | 4642 ft | 260 kts | 152° |
| 2026-05-07 07:00 | 52.75954 | -1.14455 | 5280 ft | 269 kts | 188° |
| 2026-05-07 07:00 | 52.74254 | -1.15714 | 6026 ft | 273 kts | 221° |
| 2026-05-07 07:00 | 52.72442 | -1.18627 | 6812 ft | 279 kts | 223° |
| 2026-05-07 07:01 | 52.71463 | -1.20055 | 7343 ft | 279 kts | 221° |
| 2026-05-07 07:01 | 52.69966 | -1.22097 | 8197 ft | 279 kts | 219° |
| 2026-05-07 07:01 | 52.68442 | -1.24113 | 9002 ft | 281 kts | 219° |
| 2026-05-07 07:01 | 52.66905 | -1.26129 | 9781 ft | 284 kts | 219° |
| 2026-05-07 07:02 | 52.65637 | -1.27783 | 10350 ft | 288 kts | 219° |
| 2026-05-07 07:02 | 52.64003 | -1.29908 | 10631 ft | 310 kts | 219° |
| 2026-05-07 07:02 | 52.62283 | -1.32141 | 10825 ft | 334 kts | 219° |
| 2026-05-07 07:02 | 52.60397 | -1.34581 | 11036 ft | 356 kts | 218° |
| 2026-05-07 07:03 | 52.58190 | -1.36547 | 11354 ft | 371 kts | 195° |
| 2026-05-07 07:03 | 52.55593 | -1.36702 | 12111 ft | 381 kts | 169° |
| 2026-05-07 07:03 | 52.53109 | -1.35229 | 13002 ft | 381 kts | 157° |
| 2026-05-07 07:03 | 52.50676 | -1.33512 | 13745 ft | 390 kts | 158° |
| 2026-05-07 07:04 | 52.48132 | -1.31753 | 14577 ft | 394 kts | 158° |
| 2026-05-07 07:04 | 52.45630 | -1.30035 | 15457 ft | 396 kts | 158° |
| 2026-05-07 07:04 | 52.43074 | -1.28288 | 16295 ft | 400 kts | 158° |
| 2026-05-07 07:04 | 52.40493 | -1.26532 | 17139 ft | 404 kts | 159° |
| 2026-05-07 07:05 | 52.37880 | -1.24762 | 17924 ft | 409 kts | 159° |
| 2026-05-07 07:05 | 52.35234 | -1.22975 | 18663 ft | 413 kts | 159° |
| 2026-05-07 07:05 | 52.32562 | -1.21173 | 19342 ft | 417 kts | 158° |
| 2026-05-07 07:05 | 52.29868 | -1.19360 | 20027 ft | 421 kts | 159° |
| 2026-05-07 07:06 | 52.27149 | -1.17531 | 20702 ft | 424 kts | 158° |
| 2026-05-07 07:06 | 52.24408 | -1.15693 | 21395 ft | 428 kts | 158° |
| 2026-05-07 07:06 | 52.21652 | -1.13829 | 22041 ft | 430 kts | 156° |
| 2026-05-07 07:06 | 52.19031 | -1.11411 | 22524 ft | 437 kts | 143° |
| 2026-05-07 07:07 | 52.16736 | -1.08128 | 23150 ft | 441 kts | 133° |
| 2026-05-07 07:07 | 52.15338 | -1.05404 | 23664 ft | 442 kts | 125° |
| 2026-05-07 07:07 | 52.13977 | -1.02102 | 24162 ft | 442 kts | 123° |
| 2026-05-07 07:07 | 52.12365 | -0.98110 | 24710 ft | 445 kts | 123° |
| 2026-05-07 07:08 | 52.10643 | -0.93893 | 25175 ft | 450 kts | 123° |
| 2026-05-07 07:08 | 52.08883 | -0.89643 | 25622 ft | 455 kts | 123° |
| 2026-05-07 07:08 | 52.08864 | -0.89599 | 25623 ft | 455 kts | 123° |
| 2026-05-07 07:08 | 52.07125 | -0.85445 | 26131 ft | 458 kts | 123° |
| 2026-05-07 07:09 | 52.05313 | -0.81145 | 26687 ft | 460 kts | 123° |
| 2026-05-07 07:09 | 52.03498 | -0.76845 | 27212 ft | 463 kts | 123° |
| 2026-05-07 07:09 | 52.01666 | -0.72515 | 27695 ft | 467 kts | 124° |
| 2026-05-07 07:09 | 51.99803 | -0.68164 | 28159 ft | 471 kts | 124° |
| 2026-05-07 07:10 | 51.97918 | -0.63803 | 28624 ft | 474 kts | 124° |
| 2026-05-07 07:10 | 51.96022 | -0.59417 | 29122 ft | 475 kts | 124° |
| 2026-05-07 07:10 | 51.94128 | -0.55039 | 29777 ft | 473 kts | 124° |
| 2026-05-07 07:10 | 51.92251 | -0.50681 | 30471 ft | 470 kts | 124° |
| 2026-05-07 07:11 | 51.90391 | -0.46347 | 31026 ft | 469 kts | 123° |
| 2026-05-07 07:11 | 51.88545 | -0.42041 | 31064 ft | 474 kts | 123° |
| 2026-05-07 07:11 | 51.84794 | -0.33318 | 31069 ft | 469 kts | 124° |
| 2026-05-07 07:12 | 51.81070 | -0.24696 | 31074 ft | 467 kts | 124° |
| 2026-05-07 07:12 | 51.77316 | -0.16031 | 31077 ft | 468 kts | 124° |
| 2026-05-07 07:13 | 51.73616 | -0.07437 | 31081 ft | 470 kts | 123° |
| 2026-05-07 07:13 | 51.70089 | 0.01452 | 31078 ft | 472 kts | 122° |
| 2026-05-07 07:14 | 51.66548 | 0.10378 | 31078 ft | 474 kts | 122° |
| 2026-05-07 07:14 | 51.62966 | 0.19296 | 31077 ft | 475 kts | 122° |
| 2026-05-07 07:15 | 51.59440 | 0.28267 | 31078 ft | 476 kts | 122° |
| 2026-05-07 07:15 | 51.55911 | 0.37266 | 31072 ft | 476 kts | 122° |
| 2026-05-07 07:16 | 51.52359 | 0.46263 | 31078 ft | 477 kts | 122° |
| 2026-05-07 07:16 | 51.48792 | 0.55248 | 31075 ft | 478 kts | 123° |
| 2026-05-07 07:17 | 51.45205 | 0.64251 | 31078 ft | 479 kts | 123° |
| 2026-05-07 07:17 | 51.41613 | 0.73237 | 31075 ft | 479 kts | 123° |
| 2026-05-07 07:18 | 51.38008 | 0.82225 | 31074 ft | 479 kts | 123° |
| 2026-05-07 07:18 | 51.34404 | 0.91183 | 31069 ft | 479 kts | 123° |
| 2026-05-07 07:19 | 51.30789 | 1.00140 | 31059 ft | 479 kts | 123° |
| 2026-05-07 07:19 | 51.27185 | 1.09041 | 31068 ft | 481 kts | 123° |
| 2026-05-07 07:20 | 51.23534 | 1.18080 | 31070 ft | 482 kts | 123° |
| 2026-05-07 07:20 | 51.19915 | 1.27015 | 31066 ft | 483 kts | 124° |
| 2026-05-07 07:21 | 51.16871 | 1.36603 | 31080 ft | 484 kts | 108° |
| 2026-05-07 07:21 | 51.15615 | 1.47050 | 31063 ft | 485 kts | 94° |
| 2026-05-07 07:22 | 51.15184 | 1.57835 | 31059 ft | 485 kts | 94° |
| 2026-05-07 07:22 | 51.14710 | 1.68482 | 31062 ft | 485 kts | 95° |
| 2026-05-07 07:23 | 51.14172 | 1.79276 | 31057 ft | 485 kts | 95° |
| 2026-05-07 07:23 | 51.13626 | 1.89885 | 31058 ft | 485 kts | 95° |
| 2026-05-07 07:24 | 51.13069 | 2.00597 | 31047 ft | 485 kts | 95° |
| 2026-05-07 07:24 | 51.12502 | 2.11288 | 31051 ft | 485 kts | 95° |
| 2026-05-07 07:25 | 51.11633 | 2.27341 | 31052 ft | 485 kts | 95° |
| 2026-05-07 07:26 | 51.11048 | 2.37940 | 30496 ft | 479 kts | 95° |
| 2026-05-07 07:26 | 51.10754 | 2.43198 | 29969 ft | 474 kts | 95° |
| 2026-05-07 07:26 | 51.10461 | 2.48402 | 29393 ft | 469 kts | 95° |
| 2026-05-07 07:26 | 51.10171 | 2.53530 | 28863 ft | 463 kts | 95° |
| 2026-05-07 07:27 | 51.09881 | 2.58608 | 28345 ft | 458 kts | 95° |
| 2026-05-07 07:27 | 51.09592 | 2.63626 | 27835 ft | 453 kts | 95° |
| 2026-05-07 07:27 | 51.09238 | 2.68577 | 27325 ft | 448 kts | 99° |
| 2026-05-07 07:27 | 51.08706 | 2.73420 | 26838 ft | 443 kts | 101° |
| 2026-05-07 07:28 | 51.08093 | 2.78205 | 26333 ft | 439 kts | 102° |
| 2026-05-07 07:28 | 51.07465 | 2.82942 | 25842 ft | 436 kts | 102° |
| 2026-05-07 07:28 | 51.06848 | 2.87642 | 25360 ft | 432 kts | 102° |
| 2026-05-07 07:28 | 51.06253 | 2.92298 | 24888 ft | 429 kts | 102° |
| 2026-05-07 07:29 | 51.05671 | 2.96938 | 24416 ft | 426 kts | 101° |
| 2026-05-07 07:29 | 51.05100 | 3.01551 | 23955 ft | 424 kts | 101° |
| 2026-05-07 07:29 | 51.04535 | 3.06138 | 23463 ft | 422 kts | 101° |
| 2026-05-07 07:29 | 51.03982 | 3.10636 | 22940 ft | 419 kts | 101° |
| 2026-05-07 07:30 | 51.03425 | 3.15152 | 22451 ft | 416 kts | 101° |
| 2026-05-07 07:30 | 51.02870 | 3.19641 | 21994 ft | 412 kts | 101° |
| 2026-05-07 07:30 | 51.02317 | 3.24090 | 21537 ft | 409 kts | 101° |
| 2026-05-07 07:30 | 51.01767 | 3.28501 | 21093 ft | 405 kts | 101° |
| 2026-05-07 07:31 | 51.01221 | 3.32864 | 20634 ft | 402 kts | 101° |
| 2026-05-07 07:31 | 51.00676 | 3.37204 | 20192 ft | 399 kts | 101° |
| 2026-05-07 07:31 | 51.00133 | 3.41510 | 19752 ft | 396 kts | 101° |
| 2026-05-07 07:31 | 50.99593 | 3.45784 | 19322 ft | 393 kts | 102° |
| 2026-05-07 07:32 | 50.99056 | 3.50016 | 18880 ft | 391 kts | 102° |
| 2026-05-07 07:32 | 50.98521 | 3.54231 | 18447 ft | 388 kts | 102° |
| 2026-05-07 07:32 | 50.97987 | 3.58418 | 17966 ft | 386 kts | 102° |
| 2026-05-07 07:32 | 50.97455 | 3.62576 | 17493 ft | 383 kts | 102° |
| 2026-05-07 07:33 | 50.96926 | 3.66698 | 17047 ft | 379 kts | 102° |
| 2026-05-07 07:33 | 50.96402 | 3.70772 | 16612 ft | 376 kts | 102° |
| 2026-05-07 07:33 | 50.95880 | 3.74816 | 16183 ft | 372 kts | 102° |
| 2026-05-07 07:33 | 50.95361 | 3.78823 | 15760 ft | 369 kts | 102° |
| 2026-05-07 07:34 | 50.94848 | 3.82782 | 15344 ft | 366 kts | 102° |
| 2026-05-07 07:34 | 50.94336 | 3.86717 | 14928 ft | 363 kts | 102° |
| 2026-05-07 07:34 | 50.93828 | 3.90619 | 14516 ft | 360 kts | 102° |
| 2026-05-07 07:34 | 50.93321 | 3.94490 | 14105 ft | 357 kts | 102° |
| 2026-05-07 07:35 | 50.92906 | 3.98323 | 13658 ft | 350 kts | 92° |
| 2026-05-07 07:35 | 50.93258 | 4.02097 | 13221 ft | 345 kts | 70° |
| 2026-05-07 07:35 | 50.94113 | 4.05636 | 12837 ft | 345 kts | 69° |
| 2026-05-07 07:35 | 50.94965 | 4.09241 | 12428 ft | 354 kts | 69° |
| 2026-05-07 07:36 | 50.95820 | 4.12927 | 12000 ft | 358 kts | 69° |
| 2026-05-07 07:36 | 50.96672 | 4.16636 | 11578 ft | 357 kts | 70° |
| 2026-05-07 07:36 | 50.97516 | 4.20321 | 11164 ft | 354 kts | 70° |
| 2026-05-07 07:36 | 50.98348 | 4.23971 | 10835 ft | 348 kts | 70° |
| 2026-05-07 07:37 | 50.99153 | 4.27508 | 10693 ft | 336 kts | 70° |
| 2026-05-07 07:37 | 50.99931 | 4.30937 | 10540 ft | 324 kts | 70° |
| 2026-05-07 07:37 | 51.00682 | 4.34248 | 10402 ft | 313 kts | 70° |
| 2026-05-07 07:37 | 51.01405 | 4.37443 | 10267 ft | 302 kts | 70° |
| 2026-05-07 07:38 | 51.02099 | 4.40513 | 10144 ft | 290 kts | 70° |
| 2026-05-07 07:38 | 51.02769 | 4.43481 | 10017 ft | 282 kts | 70° |
| 2026-05-07 07:38 | 51.03440 | 4.46453 | 9700 ft | 288 kts | 70° |
| 2026-05-07 07:38 | 51.04114 | 4.49449 | 9356 ft | 287 kts | 70° |
| 2026-05-07 07:39 | 51.04773 | 4.52380 | 9012 ft | 284 kts | 70° |
| 2026-05-07 07:39 | 51.05429 | 4.55305 | 8698 ft | 279 kts | 70° |
| 2026-05-07 07:39 | 51.06076 | 4.58194 | 8380 ft | 275 kts | 70° |
| 2026-05-07 07:39 | 51.06712 | 4.61036 | 8069 ft | 271 kts | 70° |
| 2026-05-07 07:40 | 51.07339 | 4.63841 | 7746 ft | 268 kts | 70° |
| 2026-05-07 07:40 | 51.07959 | 4.66613 | 7471 ft | 266 kts | 70° |
| 2026-05-07 07:40 | 51.08574 | 4.69375 | 7164 ft | 264 kts | 70° |
| 2026-05-07 07:40 | 51.09186 | 4.72127 | 6879 ft | 263 kts | 70° |
| 2026-05-07 07:41 | 51.09795 | 4.74876 | 6563 ft | 263 kts | 70° |
| 2026-05-07 07:41 | 51.10399 | 4.77612 | 6259 ft | 261 kts | 71° |
| 2026-05-07 07:41 | 51.10598 | 4.80401 | 6062 ft | 252 kts | 100° |
| 2026-05-07 07:41 | 51.09893 | 4.82918 | 5885 ft | 254 kts | 129° |
| 2026-05-07 07:42 | 51.08514 | 4.84691 | 5567 ft | 258 kts | 153° |
| 2026-05-07 07:42 | 51.06804 | 4.85453 | 5259 ft | 253 kts | 172° |
| 2026-05-07 07:42 | 51.05072 | 4.85798 | 4969 ft | 251 kts | 171° |
| 2026-05-07 07:42 | 51.03345 | 4.86052 | 4644 ft | 248 kts | 185° |
| 2026-05-07 07:43 | 51.01752 | 4.85129 | 4353 ft | 246 kts | 220° |
| 2026-05-07 07:43 | 51.00690 | 4.83048 | 4077 ft | 244 kts | 244° |
| 2026-05-07 07:43 | 50.99972 | 4.80599 | 3793 ft | 247 kts | 246° |
| 2026-05-07 07:43 | 50.99261 | 4.78119 | 3571 ft | 243 kts | 246° |
| 2026-05-07 07:44 | 50.98579 | 4.75741 | 3403 ft | 232 kts | 246° |
| 2026-05-07 07:44 | 50.97923 | 4.73452 | 3155 ft | 225 kts | 246° |
| 2026-05-07 07:44 | 50.97291 | 4.71247 | 3028 ft | 216 kts | 246° |
| 2026-05-07 07:44 | 50.96673 | 4.69099 | 2847 ft | 212 kts | 246° |
| 2026-05-07 07:45 | 50.96077 | 4.67030 | 2563 ft | 200 kts | 246° |
| 2026-05-07 07:45 | 50.95515 | 4.65075 | 2277 ft | 192 kts | 246° |
| 2026-05-07 07:45 | 50.94957 | 4.63138 | 2038 ft | 195 kts | 246° |
| 2026-05-07 07:45 | 50.94400 | 4.61196 | 1778 ft | 190 kts | 246° |
| 2026-05-07 07:46 | 50.93868 | 4.59354 | 1503 ft | 177 kts | 246° |
| 2026-05-07 07:46 | 50.93387 | 4.57684 | 1276 ft | 158 kts | 246° |
| 2026-05-07 07:46 | 50.92928 | 4.56090 | 1073 ft | 162 kts | 246° |
| 2026-05-07 07:46 | 50.92454 | 4.54466 | 849 ft | 161 kts | 245° |
| 2026-05-07 07:47 | 50.91987 | 4.52861 | 621 ft | 160 kts | 248° |
| 2026-05-07 07:47 | 50.91548 | 4.51253 | 397 ft | 158 kts | 248° |
| 2026-05-07 07:47 | 50.91094 | 4.49718 | 209 ft | 148 kts | 248° |
| 2026-05-07 07:47 | 50.90694 | 4.48333 | 203 ft | 121 kts | 245° |
| 2026-05-07 07:48 | 50.90408 | 4.47343 | 199 ft | 77 kts | 245° |
| 2026-05-07 07:48 | 50.90309 | 4.46999 | 198 ft | 30 kts | 245° |
| 2026-05-07 07:48 | 50.90276 | 4.46795 | 195 ft | 15 kts | 285° |
| 2026-05-07 07:48 | 50.90311 | 4.46683 | 205 ft | 9 kts | 296° |
| 2026-05-07 07:49 | 50.90340 | 4.46590 | 197 ft | 9 kts | 296° |
| 2026-05-07 07:49 | 50.90359 | 4.46515 | 197 ft | 6 kts | 288° |
| 2026-05-07 07:49 | 50.90366 | 4.46445 | 201 ft | 6 kts | 270° |
| 2026-05-07 07:49 | 50.90356 | 4.46377 | 197 ft | 6 kts | 251° |
| 2026-05-07 07:50 | 50.90347 | 4.46318 | 200 ft | 5 kts | 275° |
| 2026-05-07 07:50 | 50.90372 | 4.46283 | 201 ft | 5 kts | 332° |
| 2026-05-07 07:50 | 50.90394 | 4.46267 | 191 ft | 3 kts | 334° |
| 2026-05-07 07:50 | 50.90412 | 4.46252 | 205 ft | 3 kts | 334° |
| 2026-05-07 07:51 | 50.90418 | 4.46248 | 205 ft | 0 kts | 334° |